01:00 Bike Moetz - Gruenberglift - Ri. Holzleiten - Crazy Eddie - Moetz
Ort Moetz Datum 16.04.2010 18:26:18
Kategorie MTB
Distanz 19,70 Kilometer Steigung 374,9 Meter Gefälle -373,2 Meter
Gesamt Zeit 01:02:02 Aktiv 01:00:21 Pause 00:01:41
Durchs. Tempo 19,6 km/h Tempo max. 37,3 km/h Tempo min. 6,3 km/h
Kalorien 0 Durchs. HF 142 BPM HF max. 173 BPM
Wetter 15 °C ChanceRain
Ausrüstung Schwalbe - Racing Ralph hinten
Schwalbe - Racing Ralph vorne
Specialized - BG S-Works MTB
Specialized - Stumpjumper Comp
SwissStop - Disc17 Avid Juicy
Notiz Moetz - Gruenberglift - Ri. Holzleiten - Crazy Eddie - Moetz ... hinauf: Puls 159, 29:00, Trittfr 85 (neuer Rekord) ... garmin connect
Splits
Distanz (km) Gesamt Zeit Split Zeit Split Tempo Split Tempo Höhenprofil (m)
1,00 00:04:07 00:04:07 00:04:07 14,6 46,62
2,00 00:11:18 00:07:11 00:07:11 8,4 102,86
3,00 00:18:11 00:06:53 00:06:53 8,7 107,67
4,00 00:23:48 00:05:37 00:05:37 10,7 74,98
5,00 00:26:38 00:02:50 00:02:50 21,2 25,48
6,00 00:29:44 00:03:06 00:03:06 19,4 25,47
7,00 00:34:53 00:05:09 00:05:09 11,7 8,17
8,00 00:37:05 00:02:12 00:02:12 27,3 -9,13
9,00 00:38:56 00:01:51 00:01:51 32,4 -28,84
10,00 00:41:07 00:02:11 00:02:11 27,5 -26,44
11,00 00:43:23 00:02:16 00:02:16 26,5 -87,00
12,00 00:45:20 00:01:57 00:01:57 30,8 -94,21
13,00 00:47:19 00:01:59 00:01:59 30,3 -111,03
14,00 00:49:18 00:01:59 00:01:59 30,3 -33,17
15,00 00:51:16 00:01:58 00:01:58 30,5 2,40
16,00 00:53:20 00:02:04 00:02:04 29,0 6,25
17,00 00:55:43 00:02:23 00:02:23 25,2 -2,40
18,00 00:57:50 00:02:07 00:02:07 28,3 -3,85
19,00 01:00:05 00:02:15 00:02:15 26,7 -2,40